Time;durP1;ratioP1;P1;durP2;ratioP2;P2;SDS_P1;SDS_P2;PMS_P1;PMS_P2;Temp;Humidity;BMP_temperature;BMP_pressure;BME280_temperature;BME280_humidity;BME280_pressure;Samples;Min_cycle;Max_cycle;Signal;HPM_P1;HPM_P2
2021/03/03 11:16:40;;;;;;;17.38;15.85;;;;;;;13.54;36.24;100166.53;2112659;27;20505;-78
2021/03/03 11:17:41;;;;;;;18.65;16.92;;;;;;;13.65;36.03;100166.41;2112764;27;20230;-79
2021/03/03 11:18:43;;;;;;;18.48;16.83;;;;;;;13.58;36.15;100142.63;2103289;28;20229;-77
2021/03/03 11:19:44;;;;;;;19.02;17.08;;;;;;;13.80;36.64;100163.50;2103164;28;20217;-77
2021/03/03 11:20:47;;;;;;;18.77;16.88;;;;;;;13.89;36.13;100155.59;2102068;28;20243;-77
2021/03/03 11:21:49;;;;;;;18.80;17.23;;;;;;;13.91;36.56;100146.19;2094473;28;20244;-76
2021/03/03 11:22:50;;;;;;;18.00;16.50;;;;;;;14.01;36.18;100151.41;2111522;28;20213;-77
2021/03/03 11:23:52;;;;;;;16.90;15.50;;;;;;;14.13;35.55;100149.06;2120286;27;20681;-78
2021/03/03 11:24:53;;;;;;;38.63;16.33;;;;;;;14.20;36.73;100150.59;2094522;28;20639;-78
2021/03/03 11:25:56;;;;;;;17.15;15.52;;;;;;;14.28;37.31;100152.59;2086607;28;20287;-77
2021/03/03 11:26:57;;;;;;;16.83;15.48;;;;;;;14.35;37.17;100153.03;2094998;28;20248;-77
2021/03/03 11:27:59;;;;;;;17.08;15.68;;;;;;;14.38;37.95;100131.75;2095398;28;20214;-77
2021/03/03 11:29:01;;;;;;;18.30;16.60;;;;;;;14.47;37.74;100118.47;2104470;28;20301;-77
2021/03/03 11:30:03;;;;;;;18.17;16.48;;;;;;;14.66;37.24;100140.69;2103989;28;20292;-79
2021/03/03 11:31:05;;;;;;;19.95;18.05;;;;;;;14.74;37.32;100138.41;2104407;28;20285;-78
2021/03/03 11:32:08;;;;;;;20.50;18.50;;;;;;;14.67;37.33;100128.03;2103980;28;20232;-80
2021/03/03 11:33:09;;;;;;;20.33;17.52;;;;;;;14.78;37.75;100136.72;2103625;28;20217;-78
2021/03/03 11:34:12;;;;;;;20.38;18.50;;;;;;;14.86;38.13;100136.84;2103980;28;20225;-77
2021/03/03 11:35:13;;;;;;;20.00;18.08;;;;;;;14.91;37.50;100131.34;2095237;28;20218;-77
2021/03/03 11:36:15;;;;;;;19.17;17.27;;;;;;;15.02;37.03;100139.22;2095510;28;20257;-77
2021/03/03 11:37:16;;;;;;;20.42;18.27;;;;;;;15.02;36.75;100140.00;2111437;28;20225;-77
2021/03/03 11:38:18;;;;;;;18.98;17.38;;;;;;;15.06;36.40;100149.09;2103365;28;20235;-78
2021/03/03 11:39:19;;;;;;;20.13;17.67;;;;;;;15.07;35.59;100141.81;2095358;28;20715;-77
2021/03/03 11:40:21;;;;;;;20.52;18.42;;;;;;;14.98;35.08;100139.81;2095038;28;20577;-78
2021/03/03 11:41:22;;;;;;;19.85;17.95;;;;;;;15.00;35.46;100131.44;2098378;28;20226;-78
2021/03/03 11:42:24;;;;;;;19.38;17.58;;;;;;;14.98;35.82;100133.66;2112032;27;20228;-77
2021/03/03 11:43:26;;;;;;;20.50;18.60;;;;;;;14.99;35.89;100136.03;2120901;27;20224;-77
2021/03/03 11:44:27;;;;;;;20.27;18.40;;;;;;;15.12;35.53;100128.28;2111636;27;20372;-77
2021/03/03 11:45:29;;;;;;;21.98;19.52;;;;;;;15.13;36.01;100133.34;2111596;27;20220;-77
2021/03/03 11:46:31;;;;;;;20.48;18.45;;;;;;;15.16;36.88;100122.00;2111509;27;20629;-78
2021/03/03 11:47:33;;;;;;;19.75;17.85;;;;;;;15.25;36.72;100122.88;2111934;27;20220;-79
2021/03/03 11:48:35;;;;;;;19.17;17.33;;;;;;;15.35;34.53;100131.81;2111774;27;20734;-78
2021/03/03 11:49:37;;;;;;;18.27;16.45;;;;;;;15.35;33.76;100131.81;2111803;27;20270;-78
2021/03/03 11:50:39;;;;;;;18.55;16.85;;;;;;;15.26;34.41;100123.66;2118271;27;20281;-77
2021/03/03 11:51:40;;;;;;;18.75;17.05;;;;;;;15.30;34.54;100129.25;2111610;27;20228;-78
2021/03/03 11:52:42;;;;;;;20.27;18.23;;;;;;;15.33;34.40;100123.28;2111733;27;20607;-77
2021/03/03 11:53:43;;;;;;;19.90;17.92;;;;;;;15.27;34.18;100118.00;2111506;27;20224;-78
2021/03/03 11:54:45;;;;;;;19.67;17.42;;;;;;;15.27;34.51;100120.69;2111678;27;20247;-77
2021/03/03 11:55:46;;;;;;;18.60;16.90;;;;;;;15.27;33.89;100126.06;2111516;27;20330;-77
2021/03/03 11:56:48;;;;;;;20.27;18.27;;;;;;;15.28;33.51;100116.09;2111451;27;20668;-77
2021/03/03 11:57:49;;;;;;;20.23;18.05;;;;;;;15.28;33.85;100116.88;2111559;27;20225;-76
2021/03/03 11:58:51;;;;;;;18.92;17.13;;;;;;;15.39;33.25;100116.69;2103075;28;20224;-74
2021/03/03 11:59:52;;;;;;;19.42;17.52;;;;;;;15.30;33.07;100115.81;2111496;27;20798;-78
2021/03/03 12:00:54;;;;;;;19.23;17.42;;;;;;;15.16;33.29;100097.78;2111713;27;20236;-82
2021/03/03 12:01:58;;;;;;;19.52;17.48;;;;;;;15.27;33.72;100109.91;2102915;28;20261;-81
2021/03/03 12:03:02;;;;;;;19.05;17.23;;;;;;;15.33;33.29;100115.22;2112440;27;20220;-80
2021/03/03 12:04:04;;;;;;;19.23;17.30;;;;;;;15.31;32.81;100114.72;2111218;27;20221;-81
2021/03/03 12:05:07;;;;;;;18.48;16.77;;;;;;;15.25;32.35;100111.34;2112275;27;20756;-84
2021/03/03 12:06:09;;;;;;;18.00;16.60;;;;;;;15.12;31.81;100094.13;2118821;27;20315;-78
2021/03/03 12:07:11;;;;;;;19.15;17.45;;;;;;;15.18;32.40;100094.81;2111427;28;20228;-76
2021/03/03 12:08:12;;;;;;;18.77;17.10;;;;;;;15.28;32.57;100108.81;2103697;28;20719;-77
2021/03/03 12:09:14;;;;;;;18.30;16.70;;;;;;;15.33;32.60;100094.50;2104142;28;20603;-79
2021/03/03 12:10:15;;;;;;;17.27;15.80;;;;;;;15.36;32.55;100104.63;2111974;28;20221;-76
2021/03/03 12:11:17;;;;;;;23.20;17.20;;;;;;;15.38;32.48;100093.59;2120590;27;20216;-76
2021/03/03 12:12:18;;;;;;;18.13;16.48;;;;;;;15.37;32.66;100091.97;2110786;28;20253;-77
2021/03/03 12:13:20;;;;;;;18.33;16.73;;;;;;;15.38;33.01;100098.97;2103018;28;20735;-77
2021/03/03 12:14:21;;;;;;;17.70;16.08;;;;;;;15.35;32.95;100078.03;2111582;28;20715;-76
2021/03/03 12:15:23;;;;;;;17.73;16.23;;;;;;;15.44;32.72;100081.59;2110578;28;20691;-76
2021/03/03 12:16:24;;;;;;;17.90;16.20;;;;;;;15.48;32.76;100079.91;2111536;28;20297;-77
2021/03/03 12:17:27;;;;;;;17.98;16.20;;;;;;;15.48;33.07;100078.03;2111335;28;20287;-79
2021/03/03 12:18:30;;;;;;;18.40;16.75;;;;;;;15.43;33.38;100059.31;2111789;28;20239;-80
2021/03/03 12:19:31;;;;;;;18.20;16.45;;;;;;;15.60;33.15;100074.78;2120198;27;20212;-79
2021/03/03 12:20:33;;;;;;;18.70;16.80;;;;;;;15.61;32.50;100071.03;2111082;28;20223;-78
2021/03/03 12:21:35;;;;;;;19.25;17.40;;;;;;;15.73;32.48;100074.00;2112013;28;20263;-79
2021/03/03 12:22:36;;;;;;;19.15;17.27;;;;;;;15.70;31.54;100074.56;2120599;27;20285;-79
2021/03/03 12:23:38;;;;;;;18.10;16.45;;;;;;;15.71;31.59;100068.09;2111303;28;20220;-79
2021/03/03 12:24:39;;;;;;;18.33;16.55;;;;;;;15.69;31.42;100064.91;2102640;28;20236;-78
2021/03/03 12:25:41;;;;;;;19.07;17.10;;;;;;;15.67;32.03;100059.06;2111608;28;20220;-80
2021/03/03 12:26:42;;;;;;;19.52;17.70;;;;;;;15.66;32.31;100041.31;2111964;28;20538;-80
2021/03/03 12:27:44;;;;;;;18.90;17.05;;;;;;;15.76;31.91;100051.84;2116398;27;20223;-79
2021/03/03 12:28:45;;;;;;;18.92;17.17;;;;;;;15.79;32.15;100059.28;2105316;28;20220;-79
2021/03/03 12:29:47;;;;;;;18.50;16.80;;;;;;;15.81;31.97;100053.59;2113607;28;20224;-79
2021/03/03 12:30:48;;;;;;;18.67;17.08;;;;;;;15.90;31.13;100051.78;2122515;27;20697;-77
2021/03/03 12:31:50;;;;;;;18.60;17.00;;;;;;;15.93;31.61;100045.78;2114997;28;20620;-79
2021/03/03 12:32:51;;;;;;;19.02;17.50;;;;;;;15.92;30.94;100046.09;2114958;28;20217;-79
2021/03/03 12:33:54;;;;;;;18.90;17.30;;;;;;;15.90;30.92;100041.03;2105616;28;20237;-79
2021/03/03 12:34:55;;;;;;;18.23;16.63;;;;;;;15.96;30.59;100049.75;2096984;28;20230;-80
2021/03/03 12:35:57;;;;;;;18.67;17.07;;;;;;;16.05;30.77;100047.91;2105704;28;20225;-80
2021/03/03 12:36:59;;;;;;;19.88;16.98;;;;;;;16.04;30.67;100039.03;2115391;28;20447;-80
2021/03/03 12:38:00;;;;;;;18.70;16.92;;;;;;;16.02;30.90;100037.75;2105577;28;20580;-81
2021/03/03 12:39:02;;;;;;;18.55;16.75;;;;;;;16.09;30.41;100024.66;2105783;28;20237;-83
2021/03/03 12:40:04;;;;;;;17.48;15.90;;;;;;;16.17;29.77;100036.59;2114658;28;20217;-81
2021/03/03 12:41:05;;;;;;;17.52;16.10;;;;;;;16.12;29.13;100037.50;2105236;28;20309;-81
2021/03/03 12:42:08;;;;;;;18.55;16.63;;;;;;;16.11;29.77;100034.00;2097246;28;20268;-81
2021/03/03 12:43:09;;;;;;;17.83;16.43;;;;;;;16.08;29.68;100017.69;2105892;28;20273;-82
2021/03/03 12:44:11;;;;;;;18.00;16.40;;;;;;;16.23;29.80;100032.63;2115303;28;20476;-79
2021/03/03 12:45:13;;;;;;;17.25;15.93;;;;;;;16.29;29.34;100034.09;2114362;28;20415;-80
2021/03/03 12:46:15;;;;;;;17.50;16.00;;;;;;;16.30;29.48;100028.41;2105538;28;20252;-83
2021/03/03 12:47:16;;;;;;;16.70;15.30;;;;;;;16.31;29.74;100027.28;2097683;28;20444;-82
2021/03/03 12:48:18;;;;;;;17.87;16.10;;;;;;;16.33;29.37;100018.91;2105068;28;20455;-82
2021/03/03 12:49:20;;;;;;;17.00;15.50;;;;;;;16.31;28.43;100029.97;2105783;28;20440;-83
2021/03/03 12:50:22;;;;;;;16.80;15.33;;;;;;;16.32;28.63;100030.78;2103406;28;20472;-77
2021/03/03 12:51:23;;;;;;;16.43;15.23;;;;;;;16.32;28.43;100018.09;2105055;28;20820;-77
2021/03/03 12:52:25;;;;;;;17.27;15.30;;;;;;;16.39;28.66;100036.53;2106305;28;20451;-81
2021/03/03 12:53:26;;;;;;;17.60;15.80;;;;;;;16.38;28.46;100026.84;2106301;28;20308;-79
2021/03/03 12:54:28;;;;;;;17.10;15.60;;;;;;;16.34;27.95;100024.00;2097824;28;20499;-81
2021/03/03 12:55:29;;;;;;;17.60;16.00;;;;;;;16.31;28.03;100016.53;2105121;28;20455;-83
2021/03/03 12:56:31;;;;;;;17.57;16.17;;;;;;;16.35;28.34;100017.50;2104911;28;20456;-82
2021/03/03 12:57:32;;;;;;;17.17;15.88;;;;;;;16.39;28.65;100010.38;2113217;28;20476;-81
2021/03/03 12:58:34;;;;;;;17.30;16.00;;;;;;;16.39;28.32;100015.75;2122539;27;20223;-81
2021/03/03 12:59:35;;;;;;;17.40;15.85;;;;;;;16.26;28.82;99988.94;2114709;27;20451;-81
2021/03/03 13:00:37;;;;;;;16.38;15.10;;;;;;;16.36;28.86;100008.31;2105136;28;20221;-81
2021/03/03 13:01:38;;;;;;;16.63;15.20;;;;;;;16.35;29.05;99990.56;2096471;28;20320;-79
2021/03/03 13:02:44;;;;;;;16.40;15.10;;;;;;;16.44;28.63;100003.28;2104838;28;20492;-81
2021/03/03 13:03:46;;;;;;;17.70;16.20;;;;;;;16.34;29.04;99980.91;2097393;28;20222;-82
2021/03/03 13:04:48;;;;;;;17.00;15.70;;;;;;;16.57;28.11;99994.28;2105658;28;20537;-82
2021/03/03 13:05:49;;;;;;;16.10;14.70;;;;;;;16.59;27.53;99992.06;2114651;28;20542;-80
2021/03/03 13:06:51;;;;;;;15.07;14.00;;;;;;;16.50;27.53;99978.56;2114179;28;20443;-81
2021/03/03 13:07:52;;;;;;;17.10;15.60;;;;;;;16.69;27.42;99993.72;2112111;27;20471;-79
2021/03/03 13:08:54;;;;;;;16.73;15.33;;;;;;;16.68;27.54;100000.97;2121822;27;20470;-81
2021/03/03 13:09:56;;;;;;;16.17;14.97;;;;;;;16.70;27.11;99992.63;2122412;27;20471;-81
2021/03/03 13:10:58;;;;;;;15.47;14.23;;;;;;;16.70;27.43;99981.84;2105510;28;20536;-80
2021/03/03 13:11:59;;;;;;;15.50;14.40;;;;;;;16.75;27.02;99987.84;2096805;28;20807;-81
2021/03/03 13:13:01;;;;;;;15.80;14.60;;;;;;;16.70;26.60;99985.31;2097120;28;20484;-80
2021/03/03 13:14:02;;;;;;;15.50;14.30;;;;;;;16.70;27.31;99982.63;2097182;28;20461;-81
2021/03/03 13:15:05;;;;;;;15.43;14.23;;;;;;;16.75;27.24;99971.69;2105824;28;20462;-81
2021/03/03 13:16:06;;;;;;;15.50;14.30;;;;;;;16.80;27.52;99976.94;2114483;27;20439;-81
2021/03/03 13:17:08;;;;;;;15.80;14.60;;;;;;;16.92;27.24;99982.50;2112468;28;20451;-80
2021/03/03 13:18:10;;;;;;;16.33;14.93;;;;;;;16.93;27.17;99975.97;2114750;28;20528;-81
2021/03/03 13:19:11;;;;;;;15.87;14.57;;;;;;;16.98;26.44;99966.97;2114560;28;20443;-81
2021/03/03 13:20:14;;;;;;;16.43;15.10;;;;;;;17.01;26.52;99968.22;2105157;28;20637;-80
2021/03/03 13:21:16;;;;;;;15.97;14.80;;;;;;;17.05;26.80;99967.28;2105781;28;20518;-82
2021/03/03 13:22:17;;;;;;;15.87;14.73;;;;;;;17.05;26.30;99966.50;2104964;28;20471;-81
2021/03/03 13:23:19;;;;;;;16.03;14.77;;;;;;;17.04;26.24;99970.31;2105081;28;20462;-79
2021/03/03 13:24:22;;;;;;;15.83;14.73;;;;;;;16.99;26.48;99956.97;2113868;28;20458;-81
2021/03/03 13:25:23;;;;;;;15.53;14.27;;;;;;;17.00;26.65;99955.84;2103276;28;20519;-82
2021/03/03 13:26:24;;;;;;;15.97;14.60;;;;;;;17.05;25.69;99961.91;2113768;28;20480;-82
2021/03/03 13:27:26;;;;;;;15.37;14.20;;;;;;;16.98;26.12;99955.38;2113766;28;20545;-82
2021/03/03 13:28:28;;;;;;;16.07;14.90;;;;;;;17.07;26.17;99953.50;2096972;28;20452;-81
2021/03/03 13:29:30;;;;;;;16.70;15.40;;;;;;;17.11;26.05;99954.44;2105670;28;20447;-81
2021/03/03 13:30:32;;;;;;;16.70;15.40;;;;;;;17.08;26.00;99960.47;2114374;27;20570;-80
2021/03/03 13:31:33;;;;;;;17.00;15.60;;;;;;;17.08;26.27;99947.78;2105262;28;20448;-81
2021/03/03 13:32:35;;;;;;;15.80;14.53;;;;;;;17.10;26.22;99944.75;2105670;28;20440;-81
2021/03/03 13:33:36;;;;;;;16.10;14.70;;;;;;;17.17;25.64;99953.97;2114391;27;20454;-81
2021/03/03 13:34:40;;;;;;;15.87;14.57;;;;;;;17.05;25.70;99950.31;2112205;28;20495;-80
2021/03/03 13:35:43;;;;;;;16.93;15.43;;;;;;;17.06;25.14;99954.59;2114243;28;20478;-81
2021/03/03 13:36:44;;;;;;;15.67;14.40;;;;;;;17.16;25.46;99948.88;2105197;28;20946;-81
2021/03/03 13:37:46;;;;;;;15.50;14.40;;;;;;;17.16;26.44;99952.38;2105416;28;20490;-76
2021/03/03 13:38:47;;;;;;;15.20;13.87;;;;;;;17.24;25.91;99950.78;2114081;28;20443;-79
2021/03/03 13:39:48;;;;;;;15.63;14.37;;;;;;;17.26;25.73;99945.06;2104533;28;20930;-80
2021/03/03 13:40:50;;;;;;;15.23;14.13;;;;;;;17.33;25.92;99940.78;2108905;28;20504;-78
2021/03/03 13:41:51;;;;;;;16.20;15.00;;;;;;;17.42;26.27;99940.78;2114143;28;20466;-80
2021/03/03 13:42:53;;;;;;;15.93;14.53;;;;;;;17.47;25.50;99933.31;2095078;28;20457;-80
2021/03/03 13:43:55;;;;;;;16.17;14.87;;;;;;;17.48;25.43;99937.59;2105490;28;20478;-78
2021/03/03 13:44:56;;;;;;;17.13;15.60;;;;;;;17.55;25.64;99934.41;2105565;28;20459;-78
2021/03/03 13:45:57;;;;;;;15.57;14.43;;;;;;;17.52;25.46;99925.03;2105940;28;20456;-76
2021/03/03 13:46:59;;;;;;;15.63;14.43;;;;;;;17.62;25.98;99925.81;2105221;28;20458;-77
2021/03/03 13:48:00;;;;;;;16.30;15.00;;;;;;;17.62;25.42;99926.59;2106110;28;20953;-77
2021/03/03 13:49:02;;;;;;;16.10;14.80;;;;;;;17.59;25.39;99923.75;2104902;28;20938;-77
2021/03/03 13:50:04;;;;;;;15.73;14.53;;;;;;;17.69;25.12;99915.31;2097827;28;20449;-77
2021/03/03 13:51:07;;;;;;;15.80;14.23;;;;;;;17.73;25.17;99925.19;2094835;28;20452;-78
2021/03/03 13:52:09;;;;;;;15.83;14.53;;;;;;;17.82;25.13;99927.88;2103376;27;20527;-77
2021/03/03 13:53:10;;;;;;;16.27;15.00;;;;;;;17.90;24.92;99920.84;2105024;28;20448;-76
2021/03/03 13:54:12;;;;;;;16.60;15.00;;;;;;;18.01;24.47;99922.88;2096362;28;20456;-78
2021/03/03 13:55:14;;;;;;;15.47;14.17;;;;;;;17.97;25.10;99913.81;2096401;28;20816;-77
2021/03/03 13:56:15;;;;;;;16.63;14.97;;;;;;;18.13;25.15;99918.69;2096947;28;20456;-78
2021/03/03 13:57:17;;;;;;;15.83;14.53;;;;;;;18.17;24.43;99917.72;2105072;28;20444;-78
2021/03/03 13:58:19;;;;;;;16.23;14.97;;;;;;;18.13;24.29;99913.28;2105313;28;20458;-78
2021/03/03 13:59:21;;;;;;;16.90;15.50;;;;;;;18.14;24.11;99904.06;2105195;28;20458;-78
2021/03/03 14:00:23;;;;;;;17.23;15.73;;;;;;;18.24;24.62;99919.88;2102359;28;20451;-77
2021/03/03 14:01:24;;;;;;;17.10;15.60;;;;;;;18.27;24.78;99903.03;2105422;28;20515;-77
2021/03/03 14:02:28;;;;;;;16.77;15.47;;;;;;;18.37;24.78;99908.06;2104439;28;20456;-78
2021/03/03 14:03:29;;;;;;;16.53;15.30;;;;;;;18.38;24.49;99896.13;2105676;28;20448;-77
2021/03/03 14:04:32;;;;;;;16.77;15.37;;;;;;;18.50;23.91;99906.22;2105330;28;20439;-80
2021/03/03 14:05:33;;;;;;;16.17;14.83;;;;;;;18.53;24.06;99905.59;2105389;28;20460;-77
2021/03/03 14:06:36;;;;;;;16.63;15.00;;;;;;;18.56;24.19;99907.63;2104783;28;20495;-78
2021/03/03 14:07:37;;;;;;;15.97;14.37;;;;;;;18.58;23.74;99900.75;2104197;28;20962;-78
2021/03/03 14:08:39;;;;;;;16.17;14.90;;;;;;;18.56;23.83;99903.00;2105127;28;20470;-78
2021/03/03 14:09:40;;;;;;;17.37;15.83;;;;;;;18.58;23.02;99902.69;2113980;27;20439;-79
2021/03/03 14:10:42;;;;;;;17.37;15.90;;;;;;;18.48;23.21;99894.97;2113864;27;20813;-80
2021/03/03 14:11:43;;;;;;;17.20;15.83;;;;;;;18.64;23.44;99895.97;2114373;27;20799;-81
2021/03/03 14:12:45;;;;;;;18.37;16.87;;;;;;;18.61;23.19;99891.22;2113712;27;20487;-82
2021/03/03 14:13:46;;;;;;;18.37;16.73;;;;;;;18.69;23.78;99897.72;2105097;28;20513;-81
2021/03/03 14:14:48;;;;;;;17.70;16.27;;;;;;;18.79;23.60;99890.00;2104840;28;20469;-82
2021/03/03 14:15:49;;;;;;;17.10;15.73;;;;;;;18.75;23.72;99880.97;2100292;28;20443;-80
2021/03/03 14:16:52;;;;;;;16.30;15.00;;;;;;;18.75;23.76;99877.47;2105672;28;20504;-81
2021/03/03 14:17:53;;;;;;;17.17;15.60;;;;;;;18.82;23.45;99873.13;2103070;28;20554;-81
2021/03/03 14:18:55;;;;;;;16.60;15.23;;;;;;;18.92;23.70;99878.13;2096507;28;20449;-80
2021/03/03 14:19:56;;;;;;;17.43;15.93;;;;;;;19.13;23.16;99880.03;2105317;28;20466;-81
2021/03/03 14:20:58;;;;;;;17.37;15.93;;;;;;;19.15;22.96;99872.34;2104897;28;20493;-80
2021/03/03 14:22:00;;;;;;;16.93;15.47;;;;;;;19.15;23.24;99873.16;2097300;28;20461;-80
2021/03/03 14:23:01;;;;;;;19.30;16.17;;;;;;;19.08;23.31;99872.09;2104972;28;20443;-80
2021/03/03 14:24:04;;;;;;;17.40;15.77;;;;;;;19.17;22.93;99870.91;2105437;28;20455;-81
2021/03/03 14:25:07;;;;;;;18.87;17.17;;;;;;;19.16;23.02;99865.81;2105032;28;20503;-81
2021/03/03 14:26:08;;;;;;;18.20;16.43;;;;;;;19.14;22.89;99866.16;2096083;28;20460;-80
2021/03/03 14:27:10;;;;;;;17.43;16.00;;;;;;;19.27;22.91;99877.00;2113079;28;20831;-80
2021/03/03 14:28:11;;;;;;;18.07;16.30;;;;;;;19.27;22.85;99869.69;2113024;28;20467;-81
2021/03/03 14:29:13;;;;;;;17.70;16.03;;;;;;;19.20;22.95;99864.03;2104560;28;20459;-80
2021/03/03 14:30:15;;;;;;;18.57;16.93;;;;;;;19.30;22.67;99868.25;2104577;28;20439;-81
2021/03/03 14:31:16;;;;;;;19.60;17.80;;;;;;;19.32;22.47;99874.09;2096488;28;20471;-80
2021/03/03 14:32:18;;;;;;;19.00;17.37;;;;;;;19.23;22.45;99849.06;2105019;28;20443;-82
2021/03/03 14:33:20;;;;;;;19.10;17.37;;;;;;;19.30;22.57;99857.41;2104339;28;20443;-81
2021/03/03 14:34:21;;;;;;;19.13;17.23;;;;;;;19.24;22.60;99854.13;2105060;28;20460;-82
2021/03/03 14:35:23;;;;;;;19.03;17.40;;;;;;;19.31;23.05;99834.63;2111169;27;20855;-81
2021/03/03 14:36:24;;;;;;;18.57;17.00;;;;;;;19.59;22.78;99859.19;2104768;28;20452;-82
2021/03/03 14:37:27;;;;;;;18.87;17.07;;;;;;;19.63;22.95;99850.03;2096123;28;20913;-82
2021/03/03 14:38:28;;;;;;;18.50;16.90;;;;;;;19.66;22.70;99849.38;2104624;28;20546;-83
2021/03/03 14:39:30;;;;;;;19.10;17.47;;;;;;;19.68;22.87;99849.84;2096482;28;20444;-82
2021/03/03 14:40:31;;;;;;;20.37;17.83;;;;;;;19.81;22.84;99845.22;2105785;28;20516;-81
2021/03/03 14:41:34;;;;;;;19.33;17.33;;;;;;;19.76;25.38;99832.69;2104503;28;20459;-83
2021/03/03 14:42:35;;;;;;;19.27;17.53;;;;;;;19.85;23.11;99837.22;2096939;28;20456;-84
2021/03/03 14:43:37;;;;;;;18.27;16.60;;;;;;;19.83;22.83;99842.97;2102879;28;20459;-82
2021/03/03 14:44:39;;;;;;;18.97;17.33;;;;;;;19.67;22.53;99823.88;2101927;28;20459;-79
2021/03/03 14:45:41;;;;;;;18.50;16.90;;;;;;;19.73;22.51;99833.38;2095741;28;20445;-79
2021/03/03 14:46:43;;;;;;;19.77;17.87;;;;;;;19.63;22.48;99816.75;2096350;28;20460;-80
2021/03/03 14:47:45;;;;;;;19.50;17.67;;;;;;;19.84;21.81;99832.94;2096415;28;20441;-82
2021/03/03 14:48:47;;;;;;;19.00;17.33;;;;;;;19.71;21.36;99824.00;2104468;28;20475;-77
2021/03/03 14:49:49;;;;;;;18.37;16.83;;;;;;;19.88;21.84;99825.69;2103455;28;20455;-83
2021/03/03 14:50:51;;;;;;;19.10;17.40;;;;;;;19.92;21.87;99832.03;2113795;28;20462;-81
2021/03/03 14:51:53;;;;;;;19.27;17.60;;;;;;;19.79;22.13;99814.19;2103664;28;20915;-82
2021/03/03 14:52:57;;;;;;;18.57;16.43;;;;;;;19.84;22.23;99828.28;2104220;28;20823;-78
2021/03/03 14:53:59;;;;;;;19.93;17.30;;;;;;;19.86;22.48;99819.81;2104968;28;20459;-77
2021/03/03 14:55:00;;;;;;;19.03;17.13;;;;;;;19.81;22.38;99817.34;2096084;28;20443;-78
2021/03/03 14:56:02;;;;;;;18.40;16.70;;;;;;;19.85;22.06;99815.53;2105117;28;20431;-78
2021/03/03 14:57:04;;;;;;;19.77;17.67;;;;;;;19.93;22.12;99820.06;2104406;28;20473;-81
2021/03/03 14:58:05;;;;;;;19.23;17.47;;;;;;;19.83;22.06;99812.38;2096140;28;20543;-81
2021/03/03 14:59:08;;;;;;;20.00;18.07;;;;;;;19.93;22.09;99815.44;2105056;28;20456;-82
2021/03/03 15:00:12;;;;;;;19.60;17.50;;;;;;;19.90;21.97;99810.69;2113256;28;20468;-81
2021/03/03 15:01:14;;;;;;;20.53;18.73;;;;;;;19.73;21.99;99806.31;2113737;28;20461;-81
2021/03/03 15:02:15;;;;;;;19.53;17.80;;;;;;;19.77;22.18;99812.59;2113491;28;20454;-81
2021/03/03 15:03:17;;;;;;;20.60;18.30;;;;;;;19.59;21.76;99800.41;2104526;28;20455;-81
2021/03/03 15:04:18;;;;;;;19.00;17.30;;;;;;;19.62;22.09;99810.56;2096564;28;20460;-82
2021/03/03 15:05:20;;;;;;;19.20;17.30;;;;;;;19.75;21.85;99801.34;2112880;28;20458;-81
2021/03/03 15:06:22;;;;;;;21.90;17.13;;;;;;;19.59;21.99;99784.19;2121565;27;20454;-82
2021/03/03 15:07:24;;;;;;;19.70;17.80;;;;;;;19.73;21.63;99802.81;2112934;28;20468;-81
2021/03/03 15:08:27;;;;;;;19.17;17.27;;;;;;;19.54;21.84;99789.78;2104382;28;20467;-81
2021/03/03 15:09:29;;;;;;;19.20;17.20;;;;;;;19.48;22.14;99801.97;2105105;28;20858;-81
2021/03/03 15:10:30;;;;;;;19.37;17.40;;;;;;;19.42;22.46;99803.31;2104598;28;20953;-81
2021/03/03 15:11:32;;;;;;;18.43;16.63;;;;;;;19.32;22.59;99796.41;2096739;28;20904;-81
2021/03/03 15:12:33;;;;;;;19.40;17.60;;;;;;;19.24;22.44;99793.81;2104525;28;20455;-81
2021/03/03 15:13:35;;;;;;;18.63;16.83;;;;;;;19.17;22.72;99795.13;2104455;28;20538;-81
2021/03/03 15:14:38;;;;;;;18.80;17.03;;;;;;;19.09;22.25;99779.78;2104903;28;20815;-81
2021/03/03 15:15:44;;;;;;;19.67;17.67;;;;;;;19.14;23.29;99798.53;2104544;28;20456;-81
2021/03/03 15:16:46;;;;;;;18.67;16.87;;;;;;;19.07;23.05;99795.56;2114115;28;20461;-81
2021/03/03 15:17:50;;;;;;;21.33;17.60;;;;;;;19.03;27.39;99780.38;2104045;28;20455;-81
2021/03/03 15:18:51;;;;;;;19.30;17.23;;;;;;;18.84;26.89;99775.44;2105258;28;20443;-81
2021/03/03 15:19:53;;;;;;;18.27;16.37;;;;;;;18.79;25.91;99779.16;2103603;28;21022;-80
2021/03/03 15:20:54;;;;;;;18.93;17.17;;;;;;;18.79;23.87;99779.16;2104573;28;20459;-80
2021/03/03 15:21:56;;;;;;;19.10;17.40;;;;;;;18.75;23.58;99772.03;2113629;28;20450;-81
2021/03/03 15:22:57;;;;;;;21.07;16.93;;;;;;;18.87;24.76;99774.78;2114032;28;20447;-83
2021/03/03 15:24:00;;;;;;;18.93;17.03;;;;;;;18.85;24.52;99772.44;2104391;28;20451;-83
2021/03/03 15:25:01;;;;;;;19.17;17.20;;;;;;;18.76;23.43;99773.59;2105267;28;20941;-83
2021/03/03 15:26:03;;;;;;;18.50;16.90;;;;;;;18.73;24.02;99771.56;2104005;28;20506;-84
2021/03/03 15:27:05;;;;;;;19.73;17.83;;;;;;;18.71;23.65;99765.72;2096165;28;20464;-83
2021/03/03 15:28:07;;;;;;;21.37;18.60;;;;;;;18.72;23.14;99761.88;2105506;28;20447;-85
2021/03/03 15:29:08;;;;;;;20.63;17.93;;;;;;;18.77;23.26;99775.22;2112943;28;20948;-81
2021/03/03 15:30:11;;;;;;;19.27;17.47;;;;;;;18.71;23.03;99763.03;2105136;28;20447;-83
2021/03/03 15:31:12;;;;;;;19.27;17.37;;;;;;;18.73;23.19;99766.16;2104860;28;20494;-84
2021/03/03 15:32:14;;;;;;;19.90;17.97;;;;;;;18.73;23.35;99772.38;2104759;28;20490;-82
2021/03/03 15:33:15;;;;;;;21.83;18.73;;;;;;;18.79;23.34;99768.34;2089382;28;20457;-81
2021/03/03 15:34:17;;;;;;;19.87;17.80;;;;;;;19.05;22.46;99770.78;2111538;28;20585;-80
2021/03/03 15:35:18;;;;;;;19.10;17.20;;;;;;;19.01;24.48;99756.34;2113000;28;20451;-82
2021/03/03 15:36:20;;;;;;;20.07;17.97;;;;;;;18.99;24.04;99761.28;2104372;28;20451;-83
2021/03/03 15:37:21;;;;;;;19.97;17.97;;;;;;;18.96;22.70;99761.97;2104495;28;20428;-83
2021/03/03 15:38:23;;;;;;;19.10;17.20;;;;;;;19.00;22.48;99760.16;2095964;28;20543;-82
2021/03/03 15:39:25;;;;;;;20.47;18.30;;;;;;;18.91;22.66;99770.28;2104968;28;20538;-83
2021/03/03 15:40:27;;;;;;;20.27;18.07;;;;;;;18.84;23.18;99761.91;2113501;27;20567;-78
2021/03/03 15:41:28;;;;;;;19.90;17.93;;;;;;;18.95;22.58;99765.00;2113231;27;20469;-79
2021/03/03 15:42:30;;;;;;;19.40;17.40;;;;;;;18.90;22.41;99758.69;2103948;28;20455;-79
2021/03/03 15:43:31;;;;;;;19.83;17.83;;;;;;;18.95;22.48;99759.59;2104593;28;20446;-78
2021/03/03 15:44:33;;;;;;;20.13;17.93;;;;;;;19.03;23.10;99761.44;2103652;28;20567;-79
2021/03/03 15:45:34;;;;;;;20.97;16.97;;;;;;;19.02;24.20;99762.53;2096293;28;20467;-80
2021/03/03 15:46:36;;;;;;;20.97;17.17;;;;;;;19.06;23.40;99760.75;2096086;28;20448;-80
2021/03/03 15:47:37;;;;;;;19.80;16.70;;;;;;;18.90;23.09;99749.78;2104296;27;20886;-78
2021/03/03 15:48:38;;;;;;;18.23;16.43;;;;;;;18.95;23.05;99757.69;2104560;28;20569;-80
2021/03/03 15:49:41;;;;;;;22.03;17.20;;;;;;;18.94;23.06;99761.53;2096104;28;20506;-79
2021/03/03 15:50:43;;;;;;;20.10;17.73;;;;;;;18.95;22.74;99759.59;2104763;28;20562;-80
2021/03/03 15:51:44;;;;;;;19.53;16.40;;;;;;;18.78;23.11;99755.16;2104574;28;20447;-79
2021/03/03 15:52:46;;;;;;;20.23;16.37;;;;;;;18.75;23.00;99755.81;2120877;27;20442;-80
2021/03/03 15:53:47;;;;;;;21.73;17.70;;;;;;;18.55;23.00;99746.59;2121156;27;20781;-80
2021/03/03 15:54:50;;;;;;;23.27;17.67;;;;;;;18.51;23.32;99762.69;2113327;27;20517;-81
2021/03/03 15:55:52;;;;;;;21.17;17.00;;;;;;;18.22;23.54;99731.13;2099577;28;20443;-80
2021/03/03 15:56:53;;;;;;;19.03;17.03;;;;;;;18.17;23.59;99749.47;2103431;28;20463;-82
2021/03/03 15:57:55;;;;;;;26.23;16.77;;;;;;;18.03;23.58;99758.59;2104368;28;20533;-79
2021/03/03 15:58:59;;;;;;;20.80;16.67;;;;;;;17.78;23.51;99751.44;2104316;28;20539;-79